Time;durP1;ratioP1;P1;durP2;ratioP2;P2;SDS_P1;SDS_P2;PMS_P1;PMS_P2;Temp;Humidity;BMP_temperature;BMP_pressure;BME280_temperature;BME280_humidity;BME280_pressure;Samples;Min_cycle;Max_cycle;Signal;HPM_P1;HPM_P2
2023/05/06 04:00:17;;;;;;;26.90;13.97;;;9.60;99.90;;;;;;6111447;22;20986;31
2023/05/06 04:02:43;;;;;;;30.52;14.20;;;9.60;99.90;;;;;;4955767;28;20050;-79
2023/05/06 04:05:08;;;;;;;70.70;16.25;;;9.60;99.90;;;;;;4974273;28;20373;-79
2023/05/06 04:07:34;;;;;;;36.08;15.68;;;9.70;99.90;;;;;;4958724;28;20046;-81
2023/05/06 04:10:00;;;;;;;139.55;16.30;;;9.70;99.90;;;;;;4957433;28;20035;-80
2023/05/06 04:12:26;;;;;;;223.77;17.27;;;9.60;99.90;;;;;;4974820;28;20047;-79
2023/05/06 04:14:52;;;;;;;168.05;15.82;;;9.60;99.90;;;;;;4957391;28;20047;-79
2023/05/06 04:17:17;;;;;;;96.45;16.35;;;9.60;99.90;;;;;;4957335;28;20065;-78
2023/05/06 04:19:43;;;;;;;56.95;13.57;;;9.60;99.90;;;;;;4957413;28;20131;-80
2023/05/06 04:22:09;;;;;;;65.50;14.43;;;9.60;99.90;;;;;;4974275;28;20039;-79
2023/05/06 04:24:35;;;;;;;73.55;15.52;;;9.60;99.90;;;;;;4957573;28;20046;-79
2023/05/06 04:27:02;;;;;;;63.50;14.18;;;9.60;99.90;;;;;;4957571;28;20438;-79
2023/05/06 04:29:27;;;;;;;59.85;15.60;;;9.60;99.90;;;;;;4957262;28;20121;-79
2023/05/06 04:31:53;;;;;;;81.60;17.10;;;9.50;99.90;;;;;;4957224;28;20447;-79
2023/05/06 04:34:19;;;;;;;78.47;18.58;;;9.60;99.90;;;;;;4957178;28;20085;-79
2023/05/06 04:36:46;;;;;;;67.63;16.27;;;9.60;99.90;;;;;;4973299;28;20118;-78
2023/05/06 04:39:13;;;;;;;89.28;18.50;;;9.60;99.90;;;;;;4956684;28;20482;-79
2023/05/06 04:41:38;;;;;;;47.65;20.00;;;9.60;99.90;;;;;;4957151;28;20475;-79
2023/05/06 04:44:04;;;;;;;63.13;19.65;;;9.60;99.90;;;;;;4957649;28;20038;-77
2023/05/06 04:46:29;;;;;;;48.10;21.05;;;9.60;99.90;;;;;;4957338;28;20450;-79
2023/05/06 04:48:57;;;;;;;59.60;20.60;;;9.70;99.90;;;;;;4974347;28;20530;-80
2023/05/06 04:51:23;;;;;;;47.50;20.05;;;9.70;99.90;;;;;;4957171;28;20446;-79
2023/05/06 04:53:49;;;;;;;54.50;22.55;;;9.70;99.90;;;;;;4956962;28;20039;-81
2023/05/06 04:56:15;;;;;;;43.63;20.75;;;9.80;99.90;;;;;;4955338;28;20047;-79
2023/05/06 04:58:40;;;;;;;56.80;24.05;;;9.80;99.90;;;;;;4957024;28;20083;-79
2023/05/06 05:01:09;;;;;;;36.90;20.30;;;9.90;99.90;;;;;;4957079;28;20462;-78
2023/05/06 05:03:34;;;;;;;41.70;20.92;;;9.90;99.90;;;;;;4956973;28;20038;-78
2023/05/06 05:06:00;;;;;;;42.88;22.20;;;9.90;99.90;;;;;;4956530;28;20090;-78
2023/05/06 05:08:26;;;;;;;37.00;20.25;;;10.00;99.90;;;;;;4962803;28;20059;-80
2023/05/06 05:10:52;;;;;;;34.22;20.52;;;10.10;99.90;;;;;;4956851;28;20129;-80
2023/05/06 05:13:18;;;;;;;35.67;20.65;;;10.10;99.90;;;;;;4956720;28;20043;-80
2023/05/06 05:15:44;;;;;;;34.55;21.27;;;10.20;99.90;;;;;;4956314;28;20045;-80
2023/05/06 05:18:09;;;;;;;40.03;22.05;;;10.20;99.90;;;;;;4956552;28;20117;-79
2023/05/06 05:20:35;;;;;;;49.95;23.88;;;10.30;99.90;;;;;;4956388;28;20116;-78
2023/05/06 05:23:00;;;;;;;42.25;23.33;;;10.30;99.90;;;;;;4956550;28;20046;-81
2023/05/06 05:25:26;;;;;;;42.47;23.80;;;10.40;99.90;;;;;;4956772;28;20050;-76
2023/05/06 05:27:52;;;;;;;45.47;23.95;;;10.50;99.90;;;;;;4955849;28;20047;-79
2023/05/06 05:30:18;;;;;;;44.25;23.98;;;10.60;99.90;;;;;;4956550;28;20130;-79
2023/05/06 05:32:43;;;;;;;39.00;20.98;;;10.60;99.90;;;;;;4955960;28;20105;-77
2023/05/06 05:35:09;;;;;;;39.22;22.25;;;10.70;99.90;;;;;;4955889;28;20193;-79
2023/05/06 05:37:35;;;;;;;43.47;22.00;;;10.70;99.90;;;;;;4956480;28;20043;-78
2023/05/06 05:40:01;;;;;;;38.08;21.35;;;10.80;99.90;;;;;;4974225;28;20122;-79
2023/05/06 05:42:29;;;;;;;31.83;18.85;;;10.80;99.90;;;;;;4955939;28;20127;-76
2023/05/06 05:44:55;;;;;;;29.83;17.88;;;10.80;99.90;;;;;;4973696;28;20038;-78
2023/05/06 05:47:21;;;;;;;31.77;18.83;;;10.90;99.90;;;;;;4956039;28;20066;-78
2023/05/06 05:49:49;;;;;;;30.92;18.63;;;10.90;99.90;;;;;;4956095;28;20150;-78
2023/05/06 05:52:15;;;;;;;31.60;18.80;;;10.90;99.90;;;;;;4974494;28;20081;-77
2023/05/06 05:54:41;;;;;;;27.80;16.83;;;10.90;99.90;;;;;;4975943;28;20034;-77
2023/05/06 05:57:06;;;;;;;30.02;18.05;;;10.90;99.90;;;;;;4959148;28;20047;-78
2023/05/06 05:59:32;;;;;;;35.30;18.80;;;11.00;99.90;;;;;;4959747;28;20121;-79
2023/05/06 06:01:58;;;;;;;47.42;23.25;;;11.00;99.90;;;;;;4943378;28;20446;-79
2023/05/06 06:04:24;;;;;;;39.20;21.58;;;11.10;99.90;;;;;;4959607;28;20119;-77
2023/05/06 06:06:50;;;;;;;35.40;20.60;;;11.10;99.90;;;;;;4977198;28;20031;-79
2023/05/06 06:09:16;;;;;;;38.05;20.10;;;11.10;99.90;;;;;;4959231;28;20120;-78
2023/05/06 06:11:42;;;;;;;38.83;21.35;;;11.10;99.90;;;;;;4960101;28;20082;-77
2023/05/06 06:14:07;;;;;;;37.65;20.88;;;11.20;99.90;;;;;;4977080;28;20037;-79
2023/05/06 06:16:35;;;;;;;35.45;21.48;;;11.20;99.90;;;;;;4959441;28;20039;-79
2023/05/06 06:19:00;;;;;;;47.63;24.30;;;11.30;99.90;;;;;;4959256;28;20039;-78
2023/05/06 06:21:26;;;;;;;51.60;25.83;;;11.30;99.90;;;;;;4959243;28;20046;-80
2023/05/06 06:23:52;;;;;;;48.17;23.92;;;11.30;99.90;;;;;;4959196;28;20054;-78
2023/05/06 06:26:17;;;;;;;42.70;24.35;;;11.40;99.90;;;;;;4959384;28;20045;-77
2023/05/06 06:28:43;;;;;;;47.33;25.08;;;11.40;99.90;;;;;;4959020;28;20039;-80
2023/05/06 06:31:09;;;;;;;53.05;26.98;;;11.50;99.90;;;;;;4958930;28;20039;-80
2023/05/06 06:33:35;;;;;;;44.83;25.80;;;11.60;99.90;;;;;;4959096;28;20043;-79
2023/05/06 06:36:01;;;;;;;42.15;23.52;;;11.60;99.90;;;;;;4943550;28;20371;-78
2023/05/06 06:38:26;;;;;;;42.83;25.20;;;11.70;99.90;;;;;;4966924;28;20030;-79
2023/05/06 06:40:52;;;;;;;39.97;23.27;;;11.70;99.90;;;;;;4977747;28;20043;-78
2023/05/06 06:43:22;;;;;;;48.42;26.67;;;11.80;99.90;;;;;;4977106;28;20042;-79
2023/05/06 06:45:48;;;;;;;40.55;23.75;;;11.90;99.90;;;;;;4977479;28;20038;-80
2023/05/06 06:48:14;;;;;;;37.63;22.70;;;11.90;99.90;;;;;;4960596;28;20375;-77
2023/05/06 06:50:40;;;;;;;38.17;22.30;;;12.00;99.90;;;;;;4977418;28;20042;-76
2023/05/06 06:53:05;;;;;;;39.22;22.65;;;12.10;99.90;;;;;;4944171;28;20057;-76
2023/05/06 06:55:31;;;;;;;37.60;23.15;;;12.10;99.90;;;;;;4958025;28;20364;-80
2023/05/06 06:57:57;;;;;;;41.85;24.25;;;12.20;99.90;;;;;;4975852;28;20042;-79
2023/05/06 07:00:23;;;;;;;38.25;21.35;;;12.20;99.90;;;;;;4957812;28;20039;-80
2023/05/06 07:02:48;;;;;;;35.55;21.08;;;12.30;99.90;;;;;;4957369;28;20539;-80
2023/05/06 07:05:14;;;;;;;32.30;20.05;;;12.30;99.90;;;;;;4958583;28;20133;-79
2023/05/06 07:07:40;;;;;;;31.60;20.73;;;12.30;99.90;;;;;;4976368;28;20152;-80
2023/05/06 07:10:07;;;;;;;31.92;19.52;;;12.30;99.90;;;;;;4958826;28;20047;-79
2023/05/06 07:12:32;;;;;;;30.70;19.02;;;12.40;99.90;;;;;;4958952;28;20138;-80
2023/05/06 07:14:58;;;;;;;35.50;20.08;;;12.40;99.90;;;;;;4958941;28;20386;-79
2023/05/06 07:17:24;;;;;;;33.47;21.52;;;12.50;99.90;;;;;;4958396;28;20413;-78
2023/05/06 07:19:49;;;;;;;30.23;19.73;;;12.60;99.90;;;;;;4942595;28;20035;-79
2023/05/06 07:22:15;;;;;;;38.22;22.77;;;12.60;99.90;;;;;;4958695;28;20055;-83
2023/05/06 07:24:41;;;;;;;36.67;22.77;;;12.70;99.90;;;;;;4958415;28;20546;-78
2023/05/06 07:27:06;;;;;;;32.15;20.02;;;12.80;99.90;;;;;;4976264;28;20047;-83
2023/05/06 07:29:35;;;;;;;31.08;18.90;;;12.80;99.90;;;;;;4958264;28;20042;-81
2023/05/06 07:32:01;;;;;;;25.52;16.70;;;12.90;99.90;;;;;;4973219;28;20077;-78
2023/05/06 07:34:27;;;;;;;22.77;15.40;;;13.00;99.90;;;;;;4976961;28;20042;-79
2023/05/06 07:36:53;;;;;;;21.58;13.00;;;13.10;99.90;;;;;;4991520;28;20034;-84
2023/05/06 07:39:18;;;;;;;21.45;13.13;;;13.10;99.90;;;;;;4972580;28;20133;-83
2023/05/06 07:41:44;;;;;;;17.83;12.63;;;13.20;99.90;;;;;;4976690;28;20049;-81
2023/05/06 07:44:10;;;;;;;19.90;13.30;;;13.20;99.90;;;;;;4995074;28;20049;-84
2023/05/06 07:46:36;;;;;;;18.65;13.18;;;13.30;99.90;;;;;;4976959;28;20053;-82
2023/05/06 07:49:02;;;;;;;18.35;12.35;;;13.40;99.90;;;;;;4961481;28;20121;-82
2023/05/06 07:51:28;;;;;;;18.42;10.85;;;13.50;99.90;;;;;;4995115;28;20073;-81
2023/05/06 07:53:53;;;;;;;19.65;13.27;;;13.60;99.90;;;;;;4977102;28;20530;-82
2023/05/06 07:56:19;;;;;;;16.20;11.52;;;13.70;99.90;;;;;;4977213;28;20042;-82
2023/05/06 07:58:45;;;;;;;17.30;12.07;;;13.80;99.90;;;;;;4965292;28;20050;-81
2023/05/06 08:01:10;;;;;;;20.83;13.10;;;13.90;99.90;;;;;;4970812;28;20046;-82
2023/05/06 08:03:36;;;;;;;17.63;12.23;;;13.90;99.90;;;;;;4957366;28;20401;-77
2023/05/06 08:06:02;;;;;;;19.08;13.32;;;14.10;99.90;;;;;;4973227;28;20105;-82
2023/05/06 08:08:28;;;;;;;19.55;13.00;;;14.20;99.90;;;;;;4971252;28;20125;-84
2023/05/06 08:10:55;;;;;;;19.40;11.73;;;14.20;99.90;;;;;;4961050;28;20114;-78
2023/05/06 08:13:20;;;;;;;18.33;12.45;;;14.30;99.90;;;;;;4977260;28;20039;-78
2023/05/06 08:15:46;;;;;;;14.20;10.38;;;14.40;99.90;;;;;;4956238;28;20049;-82
2023/05/06 08:18:12;;;;;;;15.55;11.05;;;14.50;99.90;;;;;;4940201;28;20475;-82
2023/05/06 08:21:04;;;;;;;13.50;10.15;;;14.60;99.90;;;;;;4957420;28;20078;-82
2023/05/06 08:23:31;;;;;;;16.67;10.38;;;14.80;99.90;;;;;;4951723;28;20054;-80
2023/05/06 08:25:57;;;;;;;12.52;8.82;;;15.00;99.90;;;;;;4954338;28;20109;-81
2023/05/06 08:28:23;;;;;;;14.65;9.45;;;15.10;99.90;;;;;;4954599;28;20038;-81
2023/05/06 08:30:51;;;;;;;11.65;8.75;;;15.20;99.90;;;;;;4955473;28;20062;-81
2023/05/06 08:33:17;;;;;;;12.60;9.25;;;15.30;99.90;;;;;;4938589;28;20043;-81
2023/05/06 08:35:43;;;;;;;12.32;8.52;;;15.30;99.90;;;;;;4955136;28;20053;-80
2023/05/06 08:38:09;;;;;;;13.00;7.80;;;15.40;99.90;;;;;;4974306;28;20520;-80
2023/05/06 08:40:42;;;;;;;10.25;8.13;;;15.50;99.90;;;;;;4956680;28;20043;-81
2023/05/06 08:43:12;;;;;;;11.27;8.45;;;15.60;99.90;;;;;;4974908;28;20379;-81
2023/05/06 08:45:37;;;;;;;13.10;9.13;;;15.80;99.90;;;;;;4957145;28;20078;-81
2023/05/06 08:48:03;;;;;;;11.50;7.70;;;15.90;99.90;;;;;;4974833;28;20097;-80
2023/05/06 08:50:29;;;;;;;10.98;7.88;;;16.00;99.90;;;;;;4956616;28;20042;-80
2023/05/06 08:52:55;;;;;;;11.10;8.02;;;16.10;99.90;;;;;;4956936;28;20491;-80
2023/05/06 08:55:23;;;;;;;12.20;8.48;;;16.20;99.90;;;;;;4956885;28;20123;-81
2023/05/06 08:57:51;;;;;;;13.82;8.30;;;16.40;99.90;;;;;;4956611;28;20046;-81
2023/05/06 09:00:17;;;;;;;15.23;10.00;;;16.50;99.90;;;;;;4956995;28;20038;-81
2023/05/06 09:02:43;;;;;;;14.55;9.70;;;16.60;99.90;;;;;;4956427;28;20043;-81
2023/05/06 09:05:10;;;;;;;14.68;10.38;;;16.60;99.90;;;;;;4956625;28;20054;-80
2023/05/06 09:07:35;;;;;;;16.65;11.05;;;16.60;99.90;;;;;;4956406;28;20059;-80
2023/05/06 09:10:05;;;;;;;15.13;11.00;;;16.70;99.90;;;;;;4972526;28;20045;-81
2023/05/06 09:12:34;;;;;;;13.98;10.57;;;16.90;99.90;;;;;;4956789;28;20039;-82
2023/05/06 09:15:00;;;;;;;14.65;9.70;;;17.00;99.90;;;;;;4956334;28;20082;-81
2023/05/06 09:17:27;;;;;;;16.00;10.93;;;17.20;99.90;;;;;;4956486;28;20051;-81
2023/05/06 09:19:55;;;;;;;16.02;11.55;;;17.40;99.90;;;;;;4956525;28;20399;-81
2023/05/06 09:22:22;;;;;;;13.90;10.73;;;17.50;99.90;;;;;;4956207;28;20483;-82
2023/05/06 09:24:55;;;;;;;13.90;10.77;;;17.70;99.90;;;;;;4956476;28;20430;-81
2023/05/06 09:27:30;;;;;;;15.55;11.25;;;18.00;99.90;;;;;;4959870;28;20081;-81
2023/05/06 09:30:10;;;;;;;16.17;11.00;;;18.40;99.90;;;;;;4960441;28;20478;-80
2023/05/06 09:32:37;;;;;;;17.38;11.50;;;18.60;99.90;;;;;;4944522;28;20047;-80
2023/05/06 09:35:02;;;;;;;16.08;10.80;;;18.30;99.90;;;;;;4960308;28;20039;-81
2023/05/06 09:37:28;;;;;;;14.25;10.73;;;18.20;99.90;;;;;;4944700;28;20043;-81
2023/05/06 09:39:56;;;;;;;17.23;11.55;;;18.10;99.90;;;;;;4959999;28;20047;-81
2023/05/06 09:42:22;;;;;;;16.90;10.38;;;18.00;99.90;;;;;;4959839;28;20541;-81
2023/05/06 09:44:50;;;;;;;13.32;9.82;;;18.10;99.90;;;;;;4960021;28;20047;-81
2023/05/06 09:47:16;;;;;;;15.73;9.80;;;18.30;99.90;;;;;;4960014;28;20096;-81
2023/05/06 09:49:42;;;;;;;13.93;9.57;;;18.40;99.90;;;;;;4977374;28;20093;-81
2023/05/06 09:52:07;;;;;;;13.35;9.77;;;18.40;99.90;;;;;;4959707;28;20040;-82
2023/05/06 09:54:34;;;;;;;16.55;10.25;;;18.50;99.90;;;;;;4959826;28;20043;-82
2023/05/06 09:57:01;;;;;;;15.45;10.80;;;18.60;99.90;;;;;;4959984;28;20046;-82
2023/05/06 09:59:28;;;;;;;17.92;10.13;;;18.50;99.90;;;;;;4960051;28;20082;-80
2023/05/06 10:01:54;;;;;;;15.13;10.05;;;18.40;99.90;;;;;;4959893;28;20106;-79
2023/05/06 10:04:22;;;;;;;15.68;10.35;;;18.30;99.90;;;;;;4959870;28;20058;-82
2023/05/06 10:06:50;;;;;;;16.05;11.13;;;18.20;99.90;;;;;;4960571;28;20050;-81
2023/05/06 10:09:17;;;;;;;16.33;11.02;;;18.10;99.90;;;;;;4959508;28;20074;-82
2023/05/06 10:11:46;;;;;;;18.00;11.18;;;18.00;99.90;;;;;;4959448;28;20066;-81
2023/05/06 10:14:12;;;;;;;14.38;10.18;;;17.90;99.90;;;;;;4959690;28;20081;-82
2023/05/06 10:16:39;;;;;;;14.73;10.40;;;17.90;99.90;;;;;;4976954;28;20035;-81
2023/05/06 10:19:06;;;;;;;16.73;11.30;;;18.00;99.90;;;;;;4959561;28;20129;-81
2023/05/06 10:21:34;;;;;;;16.83;10.43;;;18.10;99.90;;;;;;4959272;28;20047;-83
2023/05/06 10:24:10;;;;;;;13.95;9.50;;;18.10;99.90;;;;;;4959576;28;20433;-82
2023/05/06 10:26:37;;;;;;;14.82;9.18;;;18.20;99.90;;;;;;4959288;28;20533;-81
2023/05/06 10:29:08;;;;;;;18.08;9.18;;;18.30;99.90;;;;;;4959195;28;20061;-83
2023/05/06 10:31:35;;;;;;;13.43;7.78;;;18.50;99.90;;;;;;4959513;28;20050;-83
2023/05/06 10:34:06;;;;;;;13.60;9.63;;;18.50;99.90;;;;;;4959149;28;20052;-83
2023/05/06 10:36:35;;;;;;;12.93;9.00;;;18.50;99.90;;;;;;4959039;28;20042;-81
2023/05/06 10:39:02;;;;;;;17.40;9.40;;;18.60;99.90;;;;;;4958662;28;20471;-83
2023/05/06 10:41:28;;;;;;;13.73;9.40;;;18.60;99.90;;;;;;4976210;28;20563;-79
2023/05/06 10:43:55;;;;;;;24.67;10.57;;;18.50;99.90;;;;;;4959175;28;20125;-83
2023/05/06 10:46:22;;;;;;;16.00;9.57;;;18.60;99.90;;;;;;4959051;28;20105;-84
2023/05/06 10:49:03;;;;;;;16.70;9.23;;;18.80;99.90;;;;;;4958794;28;20051;-82
2023/05/06 10:51:33;;;;;;;14.45;9.10;;;19.00;99.90;;;;;;4976451;28;20093;-82
2023/05/06 10:54:09;;;;;;;15.35;9.27;;;19.00;99.90;;;;;;4958916;28;20550;-79
2023/05/06 10:56:59;;;;;;;14.77;8.30;;;18.90;99.90;;;;;;4976524;28;20043;-82
2023/05/06 10:59:27;;;;;;;13.13;7.38;;;18.80;99.90;;;;;;4958546;28;20054;-82
2023/05/06 11:02:08;;;;;;;14.82;8.38;;;18.60;99.90;;;;;;4958810;28;20053;-82
2023/05/06 11:04:34;;;;;;;12.38;8.88;;;18.60;99.90;;;;;;4958815;28;20050;-81
2023/05/06 11:07:13;;;;;;;15.65;8.75;;;18.50;99.90;;;;;;4975125;28;20039;-80
2023/05/06 11:09:54;;;;;;;13.40;8.45;;;18.50;99.90;;;;;;4958520;28;20094;-79
2023/05/06 11:12:20;;;;;;;16.13;10.48;;;18.80;99.90;;;;;;4958295;28;20042;-81
2023/05/06 11:14:46;;;;;;;14.85;10.05;;;19.10;99.90;;;;;;4958419;28;20126;-82
2023/05/06 11:17:32;;;;;;;15.70;8.70;;;19.20;99.90;;;;;;4975974;28;20113;-81
2023/05/06 11:20:17;;;;;;;17.15;10.43;;;19.10;99.90;;;;;;4958247;28;20074;-81
2023/05/06 11:22:42;;;;;;;16.48;9.82;;;19.00;99.90;;;;;;4974770;28;20047;-82
2023/05/06 11:25:08;;;;;;;16.33;10.38;;;19.00;99.90;;;;;;4958134;28;20061;-83
2023/05/06 11:27:35;;;;;;;16.17;10.32;;;18.90;99.90;;;;;;4975733;28;20034;-79
2023/05/06 11:30:00;;;;;;;15.00;9.00;;;19.10;99.90;;;;;;4975446;28;20035;-80
2023/05/06 11:32:28;;;;;;;13.73;9.82;;;19.50;99.90;;;;;;4958399;28;20050;-81
2023/05/06 11:34:55;;;;;;;13.82;9.63;;;19.90;99.90;;;;;;4975817;28;20437;-81
2023/05/06 11:37:28;;;;;;;18.08;10.20;;;20.50;99.90;;;;;;4975523;28;20039;-82
2023/05/06 11:39:54;;;;;;;14.82;7.50;;;20.80;99.90;;;;;;4975735;28;20042;-81
2023/05/06 11:42:24;;;;;;;10.70;7.40;;;21.00;99.90;;;;;;4973829;28;20045;-81
2023/05/06 11:44:54;;;;;;;13.82;7.25;;;21.00;99.90;;;;;;4957845;28;20378;-81
2023/05/06 11:47:21;;;;;;;11.00;6.13;;;21.00;99.90;;;;;;4957815;28;20038;-81
2023/05/06 11:49:53;;;;;;;10.70;5.85;;;21.10;99.90;;;;;;4956928;28;20446;-81
2023/05/06 11:52:19;;;;;;;11.32;6.45;;;21.10;99.90;;;;;;4958025;28;20132;-80
2023/05/06 11:54:46;;;;;;;8.77;5.10;;;21.10;99.90;;;;;;4975382;28;20047;-81
2023/05/06 11:57:12;;;;;;;8.80;4.80;;;21.20;99.90;;;;;;4975366;28;20069;-81
2023/05/06 11:59:39;;;;;;;9.45;4.80;;;21.30;99.90;;;;;;4975085;28;20414;-84
2023/05/06 12:02:11;;;;;;;8.85;4.80;;;21.20;99.90;;;;;;4957582;28;20047;-79
2023/05/06 12:04:45;;;;;;;7.72;4.30;;;21.10;99.90;;;;;;4957588;28;20055;-82
2023/05/06 12:07:12;;;;;;;9.13;4.13;;;21.40;99.90;;;;;;4957685;28;20051;-80
2023/05/06 12:09:46;;;;;;;10.50;4.68;;;21.30;99.90;;;;;;4958505;28;20085;-78
2023/05/06 12:12:15;;;;;;;9.00;3.97;;;21.40;99.90;;;;;;4957448;28;20035;-79
2023/05/06 12:14:41;;;;;;;10.05;4.40;;;21.80;99.90;;;;;;4975051;28;20400;-80
2023/05/06 12:17:07;;;;;;;8.38;4.63;;;22.10;99.90;;;;;;4957469;28;20482;-81
2023/05/06 12:19:35;;;;;;;8.48;4.70;;;22.30;99.90;;;;;;4957247;28;20047;-83
2023/05/06 12:22:18;;;;;;;11.57;5.00;;;22.20;99.90;;;;;;4957504;28;20384;-80
2023/05/06 12:24:45;;;;;;;9.68;4.32;;;22.20;99.90;;;;;;4957629;28;20042;-81
2023/05/06 12:27:10;;;;;;;8.10;3.72;;;22.10;99.90;;;;;;4974603;28;20493;-81
2023/05/06 12:29:36;;;;;;;8.70;3.92;;;21.90;99.90;;;;;;4974837;28;20104;-81
2023/05/06 12:32:09;;;;;;;6.68;3.70;;;21.20;99.90;;;;;;4956959;28;20051;-78
2023/05/06 12:34:39;;;;;;;9.85;4.00;;;21.00;99.90;;;;;;4957321;28;20035;-80
2023/05/06 12:37:05;;;;;;;11.93;4.40;;;20.90;99.90;;;;;;4956907;28;20101;-80
2023/05/06 12:39:39;;;;;;;9.35;4.00;;;20.80;99.90;;;;;;4957186;28;20043;-82
2023/05/06 12:42:05;;;;;;;7.57;4.10;;;20.80;99.90;;;;;;4974586;28;20129;-79
2023/05/06 12:44:38;;;;;;;12.60;4.28;;;21.00;99.90;;;;;;4956946;28;20057;-81
2023/05/06 12:47:06;;;;;;;8.13;3.38;;;21.40;99.90;;;;;;4974313;28;20094;-81
2023/05/06 12:49:48;;;;;;;5.88;3.67;;;21.60;99.90;;;;;;4956777;28;20051;-79
2023/05/06 12:52:14;;;;;;;7.25;3.20;;;21.30;99.90;;;;;;4956830;28;20138;-81
2023/05/06 12:54:40;;;;;;;7.60;2.97;;;21.10;99.90;;;;;;4956767;28;20061;-79
2023/05/06 12:57:06;;;;;;;10.27;3.90;;;20.90;99.90;;;;;;4956838;28;20043;-77
2023/05/06 12:59:33;;;;;;;6.97;4.55;;;20.90;99.90;;;;;;4956631;28;20047;-78
2023/05/06 13:01:59;;;;;;;10.23;5.03;;;20.70;99.90;;;;;;4956180;28;20049;-79
2023/05/06 13:04:25;;;;;;;7.93;4.78;;;20.60;99.90;;;;;;4956836;28;20047;-82
2023/05/06 13:06:51;;;;;;;8.23;5.10;;;20.40;99.90;;;;;;4957541;28;20077;-77
2023/05/06 13:09:17;;;;;;;9.70;5.18;;;20.30;99.90;;;;;;4941799;28;20490;-78
2023/05/06 13:11:43;;;;;;;7.82;4.80;;;20.10;99.90;;;;;;4958775;28;20063;-77
2023/05/06 13:14:09;;;;;;;7.90;4.63;;;19.90;99.90;;;;;;4958810;28;20521;-78
2023/05/06 13:16:35;;;;;;;7.25;4.57;;;19.80;99.90;;;;;;4957168;28;20445;-81
2023/05/06 13:19:03;;;;;;;6.60;4.07;;;19.70;99.90;;;;;;4956830;28;20055;-82
2023/05/06 13:21:30;;;;;;;7.60;4.22;;;19.60;99.90;;;;;;4974320;28;20043;-80
2023/05/06 13:23:56;;;;;;;7.20;4.53;;;19.50;99.90;;;;;;4956724;28;20422;-78
2023/05/06 13:26:21;;;;;;;8.60;4.18;;;19.40;99.90;;;;;;4974045;28;20058;-82
2023/05/06 13:28:47;;;;;;;11.35;5.05;;;19.40;99.90;;;;;;4974286;28;20045;-80
2023/05/06 13:31:12;;;;;;;9.38;4.22;;;19.30;99.90;;;;;;4973894;28;20058;-82
2023/05/06 13:33:38;;;;;;;9.57;4.50;;;19.20;99.90;;;;;;4956624;28;20123;-82
2023/05/06 13:36:04;;;;;;;7.30;3.75;;;19.30;99.90;;;;;;4956537;28;20042;-80
2023/05/06 13:38:30;;;;;;;6.18;3.22;;;19.30;99.90;;;;;;4956388;28;20043;-81
2023/05/06 13:40:55;;;;;;;7.07;3.50;;;19.30;99.90;;;;;;4974067;28;20038;-82
2023/05/06 13:43:23;;;;;;;5.45;3.60;;;19.20;99.90;;;;;;4973945;28;20442;-81
2023/05/06 13:45:49;;;;;;;6.97;4.00;;;19.30;99.90;;;;;;4956233;28;20478;-80
2023/05/06 13:48:16;;;;;;;6.07;3.83;;;19.30;99.90;;;;;;4956336;28;20046;-81
2023/05/06 13:50:46;;;;;;;7.82;4.10;;;19.30;99.90;;;;;;4956247;28;20439;-79
2023/05/06 13:53:12;;;;;;;5.78;3.63;;;19.30;99.90;;;;;;4956535;28;20382;-78
2023/05/06 13:55:39;;;;;;;8.50;4.47;;;19.40;99.90;;;;;;4956243;28;20043;-78
2023/05/06 13:58:05;;;;;;;5.82;3.65;;;19.30;99.90;;;;;;4973764;28;20105;-79
2023/05/06 14:00:31;;;;;;;7.25;4.53;;;19.30;99.90;;;;;;4973504;28;20039;-82
2023/05/06 14:02:57;;;;;;;6.78;4.78;;;19.30;99.90;;;;;;4956117;28;20078;-79
2023/05/06 14:05:23;;;;;;;9.57;5.75;;;19.30;99.90;;;;;;4956200;28;20093;-82
2023/05/06 14:07:48;;;;;;;8.35;5.10;;;19.30;99.90;;;;;;4973630;28;20046;-82
2023/05/06 14:10:14;;;;;;;10.27;5.05;;;19.30;99.90;;;;;;4955946;28;20035;-81
2023/05/06 14:12:41;;;;;;;8.65;4.90;;;19.30;99.90;;;;;;4974590;28;20027;-82
2023/05/06 14:15:10;;;;;;;7.25;5.50;;;19.30;99.90;;;;;;4959464;28;20066;-78
2023/05/06 14:17:35;;;;;;;9.10;4.32;;;19.40;99.90;;;;;;4959466;28;20047;-81
2023/05/06 14:20:02;;;;;;;7.28;4.63;;;19.40;99.90;;;;;;4943992;28;20049;-78
2023/05/06 14:22:28;;;;;;;8.15;4.60;;;19.50;99.90;;;;;;4959750;28;20074;-82
2023/05/06 14:24:54;;;;;;;8.60;4.40;;;19.70;99.90;;;;;;4959377;28;20078;-79
2023/05/06 14:27:20;;;;;;;8.00;4.45;;;20.20;99.90;;;;;;4977006;28;20043;-82
2023/05/06 14:29:46;;;;;;;6.10;4.22;;;20.80;99.90;;;;;;4976778;28;20046;-81
2023/05/06 14:32:12;;;;;;;8.13;3.85;;;21.40;99.90;;;;;;4959138;28;20054;-83
2023/05/06 14:34:38;;;;;;;7.72;4.20;;;21.80;99.90;;;;;;4959415;28;20130;-81
2023/05/06 14:37:03;;;;;;;7.07;3.65;;;22.20;99.90;;;;;;4976727;28;20114;-79
2023/05/06 14:39:29;;;;;;;8.43;3.85;;;22.50;99.90;;;;;;4959249;28;20074;-79
2023/05/06 14:41:55;;;;;;;6.45;3.67;;;22.70;99.90;;;;;;4959271;28;20065;-83
2023/05/06 14:44:21;;;;;;;7.47;3.50;;;22.90;99.90;;;;;;4959391;28;20369;-81
2023/05/06 14:46:47;;;;;;;7.50;3.92;;;23.00;99.90;;;;;;4976963;28;20086;-79
2023/05/06 14:49:13;;;;;;;6.18;3.63;;;23.00;99.90;;;;;;4958960;28;20046;-79
2023/05/06 14:51:40;;;;;;;6.88;4.15;;;22.80;99.90;;;;;;4976294;28;20047;-81
2023/05/06 14:54:05;;;;;;;6.95;4.28;;;22.60;99.90;;;;;;4959585;28;20058;-82
2023/05/06 14:56:31;;;;;;;8.63;4.05;;;22.30;99.90;;;;;;4958242;28;20051;-81
2023/05/06 14:58:57;;;;;;;7.38;4.18;;;22.30;99.90;;;;;;4976494;28;20074;-78
2023/05/06 15:01:23;;;;;;;7.28;4.60;;;22.20;99.90;;;;;;4958641;28;20074;-81
2023/05/06 15:03:49;;;;;;;9.93;4.47;;;22.10;99.90;;;;;;4958890;28;20039;-79
2023/05/06 15:06:15;;;;;;;7.18;4.35;;;21.90;99.90;;;;;;4959007;28;20040;-81
2023/05/06 15:08:41;;;;;;;9.35;5.00;;;21.60;99.90;;;;;;4959257;28;20038;-79
2023/05/06 15:11:06;;;;;;;6.35;4.25;;;21.40;99.90;;;;;;4958645;28;20498;-78
2023/05/06 15:13:32;;;;;;;7.90;4.45;;;21.20;99.90;;;;;;4958583;28;20401;-78
2023/05/06 15:15:58;;;;;;;8.52;4.68;;;21.10;99.90;;;;;;4959240;28;20038;-81
2023/05/06 15:18:24;;;;;;;12.27;5.15;;;21.00;99.90;;;;;;4959030;28;20439;-80
2023/05/06 15:20:51;;;;;;;6.65;4.60;;;21.00;99.90;;;;;;4958739;28;20086;-79
2023/05/06 15:23:16;;;;;;;8.07;4.85;;;20.90;99.90;;;;;;4957829;28;20504;-79
2023/05/06 15:25:42;;;;;;;11.70;5.22;;;20.90;99.90;;;;;;4974746;28;20121;-82
2023/05/06 15:28:08;;;;;;;9.23;4.28;;;21.00;99.90;;;;;;4976082;28;20069;-83
2023/05/06 15:30:36;;;;;;;7.30;4.65;;;21.00;99.90;;;;;;4958257;28;20046;-81
2023/05/06 15:33:01;;;;;;;8.50;4.70;;;21.00;99.90;;;;;;4958498;28;20043;-85
2023/05/06 15:35:27;;;;;;;10.40;5.00;;;20.80;99.90;;;;;;4958533;28;20058;-83
2023/05/06 15:37:57;;;;;;;7.95;4.70;;;20.70;99.90;;;;;;4974165;28;20030;-82
2023/05/06 15:40:24;;;;;;;9.30;4.82;;;20.60;99.90;;;;;;4954271;28;20039;-80
2023/05/06 15:42:50;;;;;;;7.75;5.07;;;20.50;99.90;;;;;;4939248;29;20130;-85
2023/05/06 15:45:17;;;;;;;10.38;5.75;;;20.40;99.90;;;;;;4949391;28;20042;-83
2023/05/06 15:47:43;;;;;;;9.68;5.80;;;20.30;99.90;;;;;;4958215;28;20046;-82
2023/05/06 15:50:09;;;;;;;9.30;6.10;;;20.20;99.90;;;;;;4957942;28;20174;-84
2023/05/06 15:52:35;;;;;;;7.80;5.75;;;20.10;99.90;;;;;;4957965;28;20038;-82
2023/05/06 15:55:02;;;;;;;10.95;5.85;;;20.00;99.90;;;;;;4942091;28;20031;-82
2023/05/06 15:57:29;;;;;;;9.85;6.47;;;19.90;99.90;;;;;;4971337;28;20402;-86
2023/05/06 15:59:55;;;;;;;10.60;7.10;;;19.90;99.90;;;;;;4973978;28;20565;-82
2023/05/06 16:02:23;;;;;;;8.68;7.10;;;19.80;99.90;;;;;;4974930;28;20118;-80
2023/05/06 16:04:48;;;;;;;8.73;6.70;;;19.80;99.90;;;;;;4975385;28;20035;-83
2023/05/06 16:07:14;;;;;;;12.15;7.22;;;19.70;99.90;;;;;;4973695;28;20502;-81
2023/05/06 16:09:41;;;;;;;8.80;6.57;;;19.60;99.90;;;;;;4974230;28;20047;-78
2023/05/06 16:12:07;;;;;;;9.20;6.50;;;19.60;99.90;;;;;;4973914;28;20043;-79
2023/05/06 16:14:32;;;;;;;11.65;7.53;;;19.50;99.90;;;;;;4973290;28;20546;-81
2023/05/06 16:16:58;;;;;;;11.43;7.70;;;19.50;99.90;;;;;;4973453;28;20042;-80
2023/05/06 16:19:24;;;;;;;10.85;7.03;;;19.40;99.90;;;;;;4973857;28;20055;-80
2023/05/06 16:21:51;;;;;;;9.68;7.53;;;19.30;99.90;;;;;;4990001;28;20092;-78
2023/05/06 16:24:17;;;;;;;10.75;7.85;;;19.20;99.90;;;;;;4973773;28;20055;-79
2023/05/06 16:26:43;;;;;;;11.38;7.22;;;19.20;99.90;;;;;;4973799;28;20046;-83
2023/05/06 16:29:09;;;;;;;9.00;6.43;;;19.10;99.90;;;;;;4975022;28;20092;-81
2023/05/06 16:31:35;;;;;;;10.65;7.43;;;19.10;99.90;;;;;;4973371;28;20097;-79
2023/05/06 16:34:01;;;;;;;11.88;7.45;;;19.10;99.90;;;;;;4959621;28;20046;-79